Terminal Aerodrome Forecast
Issued by NWS Wilmington, OH

Current Version | Previous Version | Text Only | Print | Product List | Glossary Off
Versions: 1 2 3 4 5 6 7 8 9 10 11 12 13 14 15 16 17 18 19 20 21 22 23 24 25 26 27 28 29 30 31 32

000
FTUS41 KILN 251400 AAA
TAFCVG
TAF AMD
KCVG 251456Z 2515/2618 12005KT P6SM BKN250
     FM251500 22006KT P6SM SCT050 BKN250
     FM252300 19003KT P6SM SCT150 BKN250
     FM260600 20004KT P6SM BKN100
     FM261300 22010KT P6SM SCT050 BKN250=

USA.gov is the U.S. government's official web portal to all federal, state and local government web resources and services.